createdAt,value
2024-02-05T00:00:34.566Z,10.40
2024-02-05T00:03:02.749Z,10.40
2024-02-05T00:05:32.121Z,10.40
2024-02-05T00:08:00.460Z,10.40
2024-02-05T00:10:29.460Z,10.30
2024-02-05T00:12:57.757Z,10.30
2024-02-05T00:15:25.832Z,10.30
2024-02-05T00:17:53.994Z,10.30
2024-02-05T00:20:22.173Z,10.30
2024-02-05T00:22:51.635Z,10.30
2024-02-05T00:25:23.380Z,10.30
2024-02-05T00:27:51.529Z,10.30
2024-02-05T00:30:19.697Z,10.30
2024-02-05T00:32:47.994Z,10.30
2024-02-05T00:35:16.419Z,10.30
2024-02-05T00:37:45.066Z,10.30
2024-02-05T00:40:15.293Z,10.30
2024-02-05T00:42:43.633Z,10.30
2024-02-05T00:45:12.362Z,10.30
2024-02-05T00:47:40.523Z,10.30
2024-02-05T00:50:10.383Z,10.30
2024-02-05T00:52:38.652Z,10.20
2024-02-05T00:55:07.639Z,10.20
2024-02-05T00:57:37.280Z,10.30
2024-02-05T01:00:08.518Z,10.20
2024-02-05T01:02:36.935Z,10.30
2024-02-05T01:05:06.287Z,10.30
2024-02-05T01:07:34.610Z,10.30
2024-02-05T01:10:02.906Z,10.20
2024-02-05T01:12:31.150Z,10.30
2024-02-05T01:15:00.566Z,10.20
2024-02-05T01:17:28.806Z,10.20
2024-02-05T01:19:57.016Z,10.30
2024-02-05T01:22:25.169Z,10.30
2024-02-05T01:24:53.314Z,10.30
2024-02-05T01:27:21.543Z,10.30
2024-02-05T01:29:49.650Z,10.30
2024-02-05T01:32:19.060Z,10.30
2024-02-05T01:34:47.312Z,10.20
2024-02-05T01:37:15.613Z,10.20
2024-02-05T01:39:43.920Z,10.20
2024-02-05T01:42:12.283Z,10.30
2024-02-05T01:44:40.389Z,10.20
2024-02-05T01:47:08.696Z,10.20
2024-02-05T01:49:39.130Z,10.30
2024-02-05T01:52:10.639Z,10.30
2024-02-05T01:54:40.552Z,10.30
2024-02-05T01:57:12.167Z,10.30
2024-02-05T01:59:41.053Z,10.20
2024-02-05T02:02:09.951Z,10.30
2024-02-05T02:04:40.613Z,10.30
2024-02-05T02:07:09.837Z,10.30
2024-02-05T02:09:38.099Z,10.30
2024-02-05T02:12:07.435Z,10.30
2024-02-05T02:14:35.616Z,10.30
2024-02-05T02:17:03.719Z,10.20
2024-02-05T02:19:39.452Z,10.30
2024-02-05T02:22:20.203Z,10.30
2024-02-05T02:24:49.987Z,10.30
2024-02-05T02:27:18.133Z,10.30
2024-02-05T02:29:46.937Z,10.30
2024-02-05T02:32:21.493Z,10.30
2024-02-05T02:34:52.760Z,10.30
2024-02-05T02:37:24.119Z,10.30
2024-02-05T02:40:00.965Z,10.30
2024-02-05T02:42:29.883Z,10.30
2024-02-05T02:44:59.445Z,10.30
2024-02-05T02:47:27.650Z,10.30
2024-02-05T02:49:55.893Z,10.40
2024-02-05T02:52:24.000Z,10.30
2024-02-05T02:54:52.138Z,10.30
2024-02-05T02:57:21.656Z,10.30
2024-02-05T02:59:50.206Z,10.40
2024-02-05T03:02:18.270Z,10.30
2024-02-05T03:04:46.407Z,10.30
2024-02-05T03:07:14.556Z,10.30
2024-02-05T03:09:42.747Z,10.30
2024-02-05T03:12:10.899Z,10.40
2024-02-05T03:14:40.334Z,10.40
2024-02-05T03:17:08.483Z,10.40
2024-02-05T03:19:36.728Z,10.40
2024-02-05T03:22:05.452Z,10.40
2024-02-05T03:24:33.642Z,10.40
2024-02-05T03:27:01.726Z,10.40
2024-02-05T03:29:29.861Z,10.30
2024-02-05T03:31:59.352Z,10.40
2024-02-05T03:34:27.553Z,10.40
2024-02-05T03:36:55.704Z,10.30
2024-02-05T03:39:23.795Z,10.40
2024-02-05T03:41:52.010Z,10.30
2024-02-05T03:44:20.329Z,10.30
2024-02-05T03:46:48.436Z,10.30
2024-02-05T03:49:18.075Z,10.30
2024-02-05T03:51:46.253Z,10.40
2024-02-05T03:54:14.422Z,10.40
2024-02-05T03:56:46.366Z,10.30
2024-02-05T03:59:15.141Z,10.40
2024-02-05T04:01:43.915Z,10.40
2024-02-05T04:04:12.963Z,10.40
2024-02-05T04:06:42.684Z,10.40
2024-02-05T04:09:10.901Z,10.40
2024-02-05T04:11:40.965Z,10.40
2024-02-05T04:14:11.216Z,10.40
2024-02-05T04:16:39.395Z,10.40
2024-02-05T04:19:07.970Z,10.40
2024-02-05T04:21:36.209Z,10.30
2024-02-05T04:24:06.159Z,10.40
2024-02-05T04:26:34.242Z,10.40
2024-02-05T04:29:04.717Z,10.40
2024-02-05T04:31:32.818Z,10.40
2024-02-05T04:34:01.058Z,10.40
2024-02-05T04:36:29.247Z,10.40
2024-02-05T04:38:57.315Z,10.40
2024-02-05T04:41:26.853Z,10.40
2024-02-05T04:43:54.916Z,10.40
2024-02-05T04:46:23.016Z,10.40
2024-02-05T04:48:51.304Z,10.40
2024-02-05T04:51:19.415Z,10.40
2024-02-05T04:53:47.494Z,10.40
2024-02-05T04:56:15.618Z,10.40
2024-02-05T04:58:45.334Z,10.40
2024-02-05T05:01:13.725Z,10.40
2024-02-05T05:03:41.983Z,10.40
2024-02-05T05:06:10.102Z,10.40
2024-02-05T05:08:38.248Z,10.40
2024-02-05T05:11:06.444Z,10.40
2024-02-05T05:13:34.501Z,10.40
2024-02-05T05:16:04.917Z,10.40
2024-02-05T05:18:33.271Z,10.40
2024-02-05T05:21:01.422Z,10.40
2024-02-05T05:23:29.494Z,10.40
2024-02-05T05:25:57.592Z,10.50
2024-02-05T05:28:26.112Z,10.40
2024-02-05T05:30:54.302Z,10.40
2024-02-05T05:33:23.887Z,10.40
2024-02-05T05:35:52.061Z,10.40
2024-02-05T05:38:20.272Z,10.40
2024-02-05T05:40:48.800Z,10.40
2024-02-05T05:43:17.096Z,10.40
2024-02-05T05:45:45.506Z,10.40
2024-02-05T05:48:13.716Z,10.40
2024-02-05T05:50:43.141Z,10.40
2024-02-05T05:53:11.268Z,10.50
2024-02-05T05:55:39.562Z,10.50
2024-02-05T05:58:07.755Z,10.50
2024-02-05T06:00:36.042Z,10.50
2024-02-05T06:03:07.110Z,10.50
2024-02-05T06:05:35.288Z,10.50
2024-02-05T06:08:05.314Z,10.40
2024-02-05T06:10:33.495Z,10.50
2024-02-05T06:13:04.485Z,10.40
2024-02-05T06:15:32.655Z,10.40
2024-02-05T06:18:00.776Z,10.40
2024-02-05T06:20:28.917Z,10.50
2024-02-05T06:22:57.117Z,10.50
2024-02-05T06:25:26.578Z,10.50
2024-02-05T06:27:54.709Z,10.50
2024-02-05T06:30:22.772Z,10.50
2024-02-05T06:32:50.945Z,10.50
2024-02-05T06:35:19.216Z,10.40
2024-02-05T06:37:47.406Z,10.40
2024-02-05T06:40:16.575Z,10.30
2024-02-05T06:42:47.336Z,10.30
2024-02-05T06:45:16.966Z,10.30
2024-02-05T06:47:45.602Z,10.40
2024-02-05T06:50:13.697Z,10.30
2024-02-05T06:52:41.804Z,10.30
2024-02-05T06:55:10.259Z,10.30
2024-02-05T06:57:38.497Z,10.30
2024-02-05T07:00:11.215Z,10.30
2024-02-05T07:02:39.326Z,10.30
2024-02-05T07:05:08.776Z,10.30
2024-02-05T07:07:37.057Z,10.30
2024-02-05T07:10:06.313Z,10.30
2024-02-05T07:12:39.099Z,10.30
2024-02-05T07:15:10.329Z,10.30
2024-02-05T07:17:38.438Z,10.30
2024-02-05T07:20:07.885Z,10.30
2024-02-05T07:22:36.177Z,10.30
2024-02-05T07:25:04.402Z,10.30
2024-02-05T07:27:32.840Z,10.40
2024-02-05T07:30:00.865Z,10.30
2024-02-05T07:32:30.294Z,10.30
2024-02-05T07:34:58.822Z,10.40
2024-02-05T07:37:27.161Z,10.30
2024-02-05T07:39:56.306Z,10.40
2024-02-05T07:42:24.481Z,10.40
2024-02-05T07:44:52.683Z,10.40
2024-02-05T07:47:20.824Z,10.40
2024-02-05T07:49:50.508Z,10.40
2024-02-05T07:52:18.830Z,10.40
2024-02-05T07:54:46.956Z,10.40
2024-02-05T07:57:15.131Z,10.50
2024-02-05T07:59:43.189Z,10.50
2024-02-05T08:02:11.349Z,10.50
2024-02-05T08:04:41.598Z,10.50
2024-02-05T08:07:11.486Z,10.60
2024-02-05T08:09:39.675Z,10.60
2024-02-05T08:12:09.020Z,10.60
2024-02-05T08:14:37.187Z,10.60
2024-02-05T08:17:08.543Z,10.60
2024-02-05T08:19:37.356Z,10.70
2024-02-05T08:22:06.144Z,10.60
2024-02-05T08:24:36.148Z,10.60
2024-02-05T08:27:04.486Z,10.70
2024-02-05T08:29:32.577Z,10.70
2024-02-05T08:32:01.027Z,10.70
2024-02-05T08:34:30.049Z,10.70
2024-02-05T08:36:58.450Z,10.80
2024-02-05T08:39:26.642Z,10.80
2024-02-05T08:41:56.089Z,10.80
2024-02-05T08:44:26.508Z,10.80
2024-02-05T08:46:54.918Z,10.80
2024-02-05T08:49:23.234Z,10.80
2024-02-05T08:51:52.570Z,10.80
2024-02-05T08:54:20.768Z,10.80
2024-02-05T08:56:48.848Z,10.90
2024-02-05T08:59:18.323Z,10.90
2024-02-05T09:01:47.101Z,10.90
2024-02-05T09:04:15.478Z,10.90
2024-02-05T09:06:43.851Z,10.90
2024-02-05T09:09:12.125Z,10.90
2024-02-05T09:11:48.988Z,10.90
2024-02-05T09:14:22.725Z,11.00
2024-02-05T09:16:50.791Z,10.90
2024-02-05T09:19:20.039Z,11.00
2024-02-05T09:21:48.266Z,11.00
2024-02-05T09:24:16.615Z,11.00
2024-02-05T09:26:44.689Z,11.00
2024-02-05T09:29:14.216Z,11.00
2024-02-05T09:31:44.255Z,11.10
2024-02-05T09:34:14.878Z,11.10
2024-02-05T09:36:43.123Z,11.10
2024-02-05T09:39:12.296Z,11.10
2024-02-05T09:41:42.069Z,11.10
2024-02-05T09:44:10.415Z,11.20
2024-02-05T09:46:40.776Z,11.20
2024-02-05T09:49:10.547Z,11.20
2024-02-05T09:51:40.012Z,11.20
2024-02-05T09:54:17.744Z,11.30
2024-02-05T09:56:51.324Z,11.30
2024-02-05T09:59:19.674Z,11.30
2024-02-05T10:01:48.822Z,11.30
2024-02-05T10:04:20.231Z,11.40
2024-02-05T10:06:52.338Z,11.40
2024-02-05T10:09:23.671Z,11.40
2024-02-05T10:11:53.378Z,11.40
2024-02-05T10:14:28.632Z,11.40
2024-02-05T10:17:00.984Z,11.40
2024-02-05T10:19:34.381Z,11.40
2024-02-05T10:22:02.737Z,11.30
2024-02-05T10:24:30.963Z,11.40
2024-02-05T10:27:00.309Z,11.30
2024-02-05T10:29:28.493Z,11.40
2024-02-05T10:32:00.054Z,11.40
2024-02-05T10:34:28.635Z,11.40
2024-02-05T10:37:06.848Z,11.40
2024-02-05T10:39:35.148Z,11.40
2024-02-05T10:42:04.818Z,11.30
2024-02-05T10:44:38.307Z,11.40
2024-02-05T10:47:10.588Z,11.40
2024-02-05T10:49:39.555Z,11.40
2024-02-05T10:52:11.324Z,11.40
2024-02-05T10:54:43.537Z,11.40
2024-02-05T10:57:12.447Z,11.40
2024-02-05T10:59:40.685Z,11.40
2024-02-05T11:02:20.896Z,11.40
2024-02-05T11:04:50.234Z,11.40
2024-02-05T11:07:22.859Z,11.40
2024-02-05T11:09:51.852Z,11.40
2024-02-05T11:12:23.689Z,11.40
2024-02-05T11:14:56.448Z,11.40
2024-02-05T11:17:25.911Z,11.40
2024-02-05T11:19:55.855Z,11.50
2024-02-05T11:22:26.512Z,11.50
2024-02-05T11:24:54.633Z,11.50
2024-02-05T11:27:22.881Z,11.40
2024-02-05T11:29:51.347Z,11.40
2024-02-05T11:32:19.329Z,11.40
2024-02-05T11:34:47.444Z,11.40
2024-02-05T11:37:17.838Z,11.40
2024-02-05T11:39:48.454Z,11.40
2024-02-05T11:42:19.745Z,11.40
2024-02-05T11:44:48.846Z,11.50
2024-02-05T11:47:17.890Z,11.50
2024-02-05T11:49:46.355Z,11.50
2024-02-05T11:52:16.078Z,11.50
2024-02-05T11:54:44.241Z,11.50
2024-02-05T11:57:13.688Z,11.50
2024-02-05T11:59:41.756Z,11.50
2024-02-05T12:02:10.789Z,11.50
2024-02-05T12:04:39.507Z,11.50
2024-02-05T12:07:09.363Z,11.50
2024-02-05T12:09:38.621Z,11.50
2024-02-05T12:12:07.235Z,11.50
2024-02-05T12:14:39.912Z,11.50
2024-02-05T12:17:14.408Z,11.50
2024-02-05T12:19:42.845Z,11.50
2024-02-05T12:22:11.385Z,11.50
2024-02-05T12:24:40.173Z,11.50
2024-02-05T12:27:08.508Z,11.50
2024-02-05T12:29:38.207Z,11.50
2024-02-05T12:32:09.531Z,11.50
2024-02-05T12:34:38.111Z,11.60
2024-02-05T12:37:07.699Z,11.60
2024-02-05T12:39:37.233Z,11.60
2024-02-05T12:42:05.823Z,11.60
2024-02-05T12:44:40.496Z,11.60
2024-02-05T12:47:13.452Z,11.50
2024-02-05T12:49:42.025Z,11.60
2024-02-05T12:52:10.269Z,11.60
2024-02-05T12:54:40.413Z,11.60
2024-02-05T12:57:09.216Z,11.60
2024-02-05T12:59:38.293Z,11.60
2024-02-05T13:02:07.358Z,11.60
2024-02-05T13:04:38.481Z,11.60
2024-02-05T13:07:12.519Z,11.60
2024-02-05T13:09:42.925Z,11.60
2024-02-05T13:12:13.455Z,11.60
2024-02-05T13:14:41.721Z,11.60
2024-02-05T13:17:09.943Z,11.60
2024-02-05T13:19:39.638Z,11.60
2024-02-05T13:22:09.131Z,11.60
2024-02-05T13:24:37.909Z,11.60
2024-02-05T13:27:06.765Z,11.60
2024-02-05T13:29:34.998Z,11.60
2024-02-05T13:32:03.351Z,11.60
2024-02-05T13:34:33.113Z,11.60
2024-02-05T13:37:02.786Z,11.60
2024-02-05T13:39:32.279Z,11.60
2024-02-05T13:42:04.741Z,11.60
2024-02-05T13:44:32.937Z,11.60
2024-02-05T13:47:01.164Z,11.60
2024-02-05T13:49:29.556Z,11.60
2024-02-05T13:51:57.977Z,11.60
2024-02-05T13:54:28.246Z,11.60
2024-02-05T13:56:58.466Z,11.60
2024-02-05T13:59:26.714Z,11.60
2024-02-05T14:01:55.243Z,11.60
2024-02-05T14:04:23.820Z,11.60
2024-02-05T14:06:52.176Z,11.60
2024-02-05T14:09:20.399Z,11.70
2024-02-05T14:11:49.910Z,11.60
2024-02-05T14:14:18.168Z,11.60
2024-02-05T14:16:46.262Z,11.60
2024-02-05T14:19:14.591Z,11.60
2024-02-05T14:21:43.009Z,11.60
2024-02-05T14:24:11.102Z,11.60
2024-02-05T14:26:39.343Z,11.60
2024-02-05T14:29:08.821Z,11.60
2024-02-05T14:31:36.962Z,11.60
2024-02-05T14:34:05.294Z,11.60
2024-02-05T14:36:33.465Z,11.60
2024-02-05T14:39:01.636Z,11.60
2024-02-05T14:41:29.812Z,11.60
2024-02-05T14:43:57.972Z,11.60
2024-02-05T14:46:27.684Z,11.70
2024-02-05T14:48:56.053Z,11.70
2024-02-05T14:51:25.211Z,11.70
2024-02-05T14:53:53.390Z,11.60
2024-02-05T14:56:21.597Z,11.60
2024-02-05T14:58:49.674Z,11.60
2024-02-05T15:01:18.161Z,11.60
2024-02-05T15:03:48.413Z,11.70
2024-02-05T15:06:16.701Z,11.60
2024-02-05T15:08:45.701Z,11.60
2024-02-05T15:11:14.167Z,11.60
2024-02-05T15:13:42.858Z,11.60
2024-02-05T15:16:11.156Z,11.60
2024-02-05T15:18:41.633Z,11.60
2024-02-05T15:21:17.019Z,11.50
2024-02-05T15:23:45.708Z,11.60
2024-02-05T15:26:14.107Z,11.50
2024-02-05T15:28:42.579Z,11.50
2024-02-05T15:31:11.796Z,11.50
2024-02-05T15:33:40.150Z,11.50
2024-02-05T15:36:12.800Z,11.40
2024-02-05T15:38:42.937Z,11.50
2024-02-05T15:41:11.068Z,11.40
2024-02-05T15:43:39.380Z,11.40
2024-02-05T15:46:07.694Z,11.50
2024-02-05T15:48:35.834Z,11.40
2024-02-05T15:51:04.232Z,11.30
2024-02-05T15:53:32.355Z,11.40
2024-02-05T15:56:01.820Z,11.30
2024-02-05T15:58:30.002Z,11.30
2024-02-05T16:00:58.271Z,11.30
2024-02-05T16:03:26.481Z,11.20
2024-02-05T16:05:55.611Z,11.20
2024-02-05T16:08:23.834Z,11.20
2024-02-05T16:10:52.128Z,11.10
2024-02-05T16:13:23.663Z,11.10
2024-02-05T16:15:51.925Z,11.20
2024-02-05T16:18:20.187Z,11.10
2024-02-05T16:20:48.549Z,11.10
2024-02-05T16:23:16.754Z,11.10
2024-02-05T16:25:44.988Z,11.10
2024-02-05T16:28:13.178Z,11.10
2024-02-05T16:30:42.631Z,11.00
2024-02-05T16:33:10.984Z,11.00
2024-02-05T16:35:39.478Z,11.00
2024-02-05T16:38:09.181Z,10.90
2024-02-05T16:40:37.293Z,10.80
2024-02-05T16:43:05.629Z,10.80
2024-02-05T16:45:33.748Z,10.90
2024-02-05T16:48:03.851Z,10.80
2024-02-05T16:50:32.086Z,10.80
2024-02-05T16:53:00.411Z,10.80
2024-02-05T16:55:31.659Z,10.70
2024-02-05T16:58:00.249Z,10.70
2024-02-05T17:00:28.430Z,10.70
2024-02-05T17:02:56.648Z,10.70
2024-02-05T17:05:26.202Z,10.70
2024-02-05T17:07:54.599Z,10.60
2024-02-05T17:10:22.844Z,10.60
2024-02-05T17:12:58.644Z,10.60
2024-02-05T17:15:27.083Z,10.60
2024-02-05T17:17:55.778Z,10.50
2024-02-05T17:20:24.054Z,10.50
2024-02-05T17:22:53.822Z,10.50
2024-02-05T17:25:22.124Z,10.40
2024-02-05T17:27:50.345Z,10.30
2024-02-05T17:30:18.811Z,10.40
2024-02-05T17:32:47.116Z,10.30
2024-02-05T17:35:16.180Z,10.40
2024-02-05T17:37:44.414Z,10.30
2024-02-05T17:40:14.583Z,10.20
2024-02-05T17:42:42.727Z,10.30
2024-02-05T17:45:11.268Z,10.30
2024-02-05T17:47:39.339Z,10.40
2024-02-05T17:50:08.816Z,10.40
2024-02-05T17:52:37.007Z,10.30
2024-02-05T17:55:05.655Z,10.20
2024-02-05T17:57:35.245Z,10.20
2024-02-05T18:00:03.620Z,10.20
2024-02-05T18:02:33.243Z,10.10
2024-02-05T18:05:01.708Z,10.10
2024-02-05T18:07:30.165Z,10.10
2024-02-05T18:09:58.344Z,10.10
2024-02-05T18:12:26.543Z,10.10
2024-02-05T18:14:56.022Z,10.10
2024-02-05T18:17:24.161Z,10.10
2024-02-05T18:19:52.448Z,10.20
2024-02-05T18:22:21.127Z,10.10
2024-02-05T18:24:51.168Z,10.10
2024-02-05T18:27:19.485Z,10.10
2024-02-05T18:29:47.593Z,10.10
2024-02-05T18:32:17.014Z,10.00
2024-02-05T18:34:47.322Z,10.00
2024-02-05T18:37:16.236Z,10.00
2024-02-05T18:39:44.566Z,10.00
2024-02-05T18:42:12.658Z,10.00
2024-02-05T18:44:40.870Z,10.10
2024-02-05T18:47:09.079Z,10.10
2024-02-05T18:49:38.561Z,10.00
2024-02-05T18:52:10.025Z,9.80
2024-02-05T18:54:38.657Z,9.80
2024-02-05T18:57:09.020Z,9.90
2024-02-05T18:59:37.205Z,9.90
2024-02-05T19:02:05.770Z,10.00
2024-02-05T19:04:34.076Z,9.90
2024-02-05T19:07:04.710Z,9.90
2024-02-05T19:09:34.368Z,9.80
2024-02-05T19:12:02.567Z,9.80
2024-02-05T19:14:30.651Z,9.90
2024-02-05T19:16:58.758Z,9.80
2024-02-05T19:19:27.373Z,9.70
2024-02-05T19:21:55.514Z,9.70
2024-02-05T19:24:25.117Z,9.80
2024-02-05T19:26:53.509Z,9.80
2024-02-05T19:29:21.789Z,9.80
2024-02-05T19:31:50.014Z,9.80
2024-02-05T19:34:18.653Z,9.90
2024-02-05T19:36:46.881Z,9.80
2024-02-05T19:39:15.012Z,10.00
2024-02-05T19:41:45.376Z,9.90
2024-02-05T19:44:13.824Z,9.90
2024-02-05T19:46:42.141Z,9.80
2024-02-05T19:49:10.455Z,9.70
2024-02-05T19:51:38.668Z,9.60
2024-02-05T19:54:08.030Z,9.70
2024-02-05T19:56:36.314Z,9.70
2024-02-05T19:59:05.792Z,9.60
2024-02-05T20:01:34.013Z,9.60
2024-02-05T20:04:02.564Z,9.60
2024-02-05T20:06:31.376Z,9.60
2024-02-05T20:08:59.752Z,9.50
2024-02-05T20:11:27.848Z,9.50
2024-02-05T20:13:55.941Z,9.30
2024-02-05T20:16:29.135Z,9.40
2024-02-05T20:18:57.761Z,9.50
2024-02-05T20:21:26.660Z,9.40
2024-02-05T20:23:55.668Z,9.30
2024-02-05T20:26:24.118Z,9.40
2024-02-05T20:28:52.255Z,9.40
2024-02-05T20:31:20.363Z,9.40
2024-02-05T20:33:50.435Z,9.50
2024-02-05T20:36:18.608Z,9.50
2024-02-05T20:38:46.944Z,9.40
2024-02-05T20:41:15.214Z,9.50
2024-02-05T20:43:46.768Z,9.50
2024-02-05T20:46:15.403Z,9.60
2024-02-05T20:48:43.554Z,9.50
2024-02-05T20:51:13.023Z,9.50
2024-02-05T20:53:42.304Z,9.50
2024-02-05T20:56:10.538Z,9.50
2024-02-05T20:58:38.778Z,9.50
2024-02-05T21:01:07.825Z,9.50
2024-02-05T21:03:37.007Z,9.50
2024-02-05T21:06:05.955Z,9.60
2024-02-05T21:08:35.435Z,9.50
2024-02-05T21:11:04.846Z,9.50
2024-02-05T21:13:33.463Z,9.40
2024-02-05T21:16:01.637Z,9.40
2024-02-05T21:18:29.934Z,9.40
2024-02-05T21:20:58.502Z,9.50
2024-02-05T21:23:26.735Z,9.50
2024-02-05T21:25:56.170Z,9.50
2024-02-05T21:28:24.297Z,9.50
2024-02-05T21:30:52.422Z,9.50
2024-02-05T21:33:20.488Z,9.40
2024-02-05T21:35:48.606Z,9.60
2024-02-05T21:38:16.696Z,9.50
2024-02-05T21:40:45.017Z,9.50
2024-02-05T21:43:15.217Z,9.50
2024-02-05T21:45:43.346Z,9.50
2024-02-05T21:48:11.865Z,9.60
2024-02-05T21:50:40.591Z,9.60
2024-02-05T21:53:08.738Z,9.60
2024-02-05T21:55:36.897Z,9.60
2024-02-05T21:58:05.401Z,9.60
2024-02-05T22:00:34.978Z,9.60
2024-02-05T22:03:03.143Z,9.60
2024-02-05T22:05:31.302Z,9.50
2024-02-05T22:07:59.412Z,9.50
2024-02-05T22:10:27.662Z,9.60
2024-02-05T22:12:55.820Z,9.50
2024-02-05T22:15:23.933Z,9.60
2024-02-05T22:17:53.414Z,9.60
2024-02-05T22:20:21.612Z,9.60
2024-02-05T22:22:49.736Z,9.50
2024-02-05T22:25:18.569Z,9.50
2024-02-05T22:27:46.761Z,9.60
2024-02-05T22:30:15.598Z,9.60
2024-02-05T22:32:43.727Z,9.60
2024-02-05T22:35:13.332Z,9.60
2024-02-05T22:37:41.560Z,9.50
2024-02-05T22:40:11.136Z,9.60
2024-02-05T22:42:39.954Z,9.60
2024-02-05T22:45:09.431Z,9.50
2024-02-05T22:47:37.621Z,9.60
2024-02-05T22:50:07.203Z,9.50
2024-02-05T22:52:36.795Z,9.50
2024-02-05T22:55:05.742Z,9.40
2024-02-05T22:57:34.356Z,9.50
2024-02-05T23:00:02.983Z,9.50
2024-02-05T23:02:31.796Z,9.70
2024-02-05T23:05:00.031Z,9.60
2024-02-05T23:07:28.149Z,9.70
2024-02-05T23:09:58.154Z,9.70
2024-02-05T23:12:26.277Z,9.70
2024-02-05T23:14:54.341Z,9.60
2024-02-05T23:17:22.440Z,9.70
2024-02-05T23:19:50.544Z,9.60
2024-02-05T23:22:18.717Z,9.60
2024-02-05T23:24:47.063Z,9.60
2024-02-05T23:27:16.520Z,9.70
2024-02-05T23:29:44.640Z,9.60
2024-02-05T23:32:13.455Z,9.60
2024-02-05T23:34:43.868Z,9.60
2024-02-05T23:37:12.152Z,9.60
2024-02-05T23:39:40.237Z,9.60
2024-02-05T23:42:08.596Z,9.70
2024-02-05T23:44:39.521Z,9.70
2024-02-05T23:47:08.017Z,9.80
2024-02-05T23:49:37.036Z,9.80
2024-02-05T23:52:05.744Z,9.70
2024-02-05T23:54:33.988Z,9.70
2024-02-05T23:57:02.072Z,9.80
2024-02-05T23:59:30.302Z,9.60
